Time;durP1;ratioP1;P1;durP2;ratioP2;P2;SDS_P1;SDS_P2;PMS_P1;PMS_P2;Temp;Humidity;BMP_temperature;BMP_pressure;BME280_temperature;BME280_humidity;BME280_pressure;Samples;Min_cycle;Max_cycle;Signal;HPM_P1;HPM_P2
2023/12/11 00:00:30;;;;;;;;;;;9.70;99.90;;;;;;5026769;28;19952;-57
2023/12/11 00:02:58;;;;;;;;;;;9.70;99.90;;;;;;5028453;28;20365;-57
2023/12/11 00:05:26;;;;;;;;;;;9.70;99.90;;;;;;5015083;28;19925;-57
2023/12/11 00:07:54;;;;;;;;;;;9.70;99.90;;;;;;5027400;28;19929;-57
2023/12/11 00:10:21;;;;;;;;;;;9.70;99.90;;;;;;5028309;28;20309;-57
2023/12/11 00:12:49;;;;;;;;;;;9.70;99.90;;;;;;5013851;28;20004;-57
2023/12/11 00:15:16;;;;;;;;;;;9.70;99.90;;;;;;5026802;28;19929;-57
2023/12/11 00:17:44;;;;;;;;;;;9.70;99.90;;;;;;5028281;28;19925;-57
2023/12/11 00:20:12;;;;;;;;;;;9.70;99.90;;;;;;5018251;28;20265;-57
2023/12/11 00:22:40;;;;;;;;;;;9.70;99.90;;;;;;5026223;28;19933;-57
2023/12/11 00:25:10;;;;;;;;;;;9.70;99.90;;;;;;5036829;28;19929;-57
2023/12/11 00:27:38;;;;;;;;;;;9.70;99.90;;;;;;5029437;28;19925;-57
2023/12/11 00:30:06;;;;;;;;;;;9.60;99.90;;;;;;5031151;28;19925;-57
2023/12/11 00:32:34;;;;;;;;;;;9.60;99.90;;;;;;5028020;28;20376;-57
2023/12/11 00:35:02;;;;;;;;;;;9.50;99.90;;;;;;5030757;28;20369;-57
2023/12/11 00:37:30;;;;;;;;;;;9.60;99.90;;;;;;5025862;28;19932;-57
2023/12/11 00:39:58;;;;;;;;;;;9.50;99.90;;;;;;5040513;28;19925;-58
2023/12/11 00:42:26;;;;;;;;;;;9.50;99.90;;;;;;5035164;28;19941;-56
2023/12/11 00:44:53;;;;;;;;;;;9.40;99.90;;;;;;5027172;28;19929;-56
2023/12/11 00:47:21;;;;;;;;;;;9.30;99.90;;;;;;5022296;28;19932;-56
2023/12/11 00:49:48;;;;;;;;;;;9.10;99.90;;;;;;5022818;28;19929;-57
2023/12/11 00:52:16;;;;;;;;;;;8.90;99.90;;;;;;5022413;28;19933;-56
2023/12/11 00:54:44;;;;;;;;;;;8.70;99.90;;;;;;5028390;28;19925;-56
2023/12/11 00:57:12;;;;;;;;;;;8.60;99.90;;;;;;5027861;28;19925;-56
2023/12/11 00:59:39;;;;;;;;;;;8.50;99.90;;;;;;5027887;28;19925;-56
2023/12/11 01:02:07;;;;;;;;;;;8.40;99.90;;;;;;5024331;28;19929;-56
2023/12/11 01:04:35;;;;;;;;;;;8.40;99.90;;;;;;5022144;28;19932;-55
2023/12/11 01:07:03;;;;;;;;;;;8.30;99.90;;;;;;5024685;28;19929;-55
2023/12/11 01:09:31;;;;;;;;;;;8.30;99.90;;;;;;5027686;28;19926;-56
2023/12/11 01:11:59;;;;;;;;;;;8.30;99.90;;;;;;5040918;28;19956;-56
2023/12/11 01:14:28;;;;;;;;;;;8.30;99.90;;;;;;5031857;28;19936;-56
2023/12/11 01:16:56;;;;;;;;;;;8.20;99.90;;;;;;5026205;28;19940;-56
2023/12/11 01:19:24;;;;;;;;;;;8.20;99.90;;;;;;5027342;28;19932;-56
2023/12/11 01:21:51;;;;;;;;;;;8.20;99.90;;;;;;5015882;28;20415;-57
2023/12/11 01:24:19;;;;;;;;;;;8.20;99.90;;;;;;5037208;28;19925;-57
2023/12/11 01:26:47;;;;;;;;;;;8.20;99.90;;;;;;5029832;28;19932;-56
2023/12/11 01:29:15;;;;;;;;;;;8.20;99.90;;;;;;5026554;28;20116;-57
2023/12/11 01:31:43;;;;;;;;;;;8.20;99.90;;;;;;5046893;28;19929;-57
2023/12/11 01:34:11;;;;;;;;;;;8.10;99.90;;;;;;5034267;28;19952;-57
2023/12/11 01:36:39;;;;;;;;;;;8.20;99.90;;;;;;5025239;28;19929;-57
2023/12/11 01:39:06;;;;;;;;;;;8.10;99.90;;;;;;5030804;28;19925;-57
2023/12/11 01:41:34;;;;;;;;;;;8.20;99.90;;;;;;5042090;28;19928;-57
2023/12/11 01:44:03;;;;;;;;;;;8.20;99.90;;;;;;5035217;28;19929;-56
2023/12/11 01:46:31;;;;;;;;;;;8.20;99.90;;;;;;5029959;28;19925;-57
2023/12/11 01:49:00;;;;;;;;;;;8.20;99.90;;;;;;5031509;28;20401;-56
2023/12/11 01:51:28;;;;;;;;;;;8.20;99.90;;;;;;5019867;28;20297;-57
2023/12/11 01:53:56;;;;;;;;;;;8.20;99.90;;;;;;5029089;28;19936;-57
2023/12/11 01:56:25;;;;;;;;;;;8.20;99.90;;;;;;5029759;28;19929;-57
2023/12/11 01:58:53;;;;;;;;;;;8.10;99.90;;;;;;5026742;28;19956;-56
2023/12/11 02:01:22;;;;;;;;;;;8.20;99.90;;;;;;5024915;28;19936;-56
2023/12/11 02:03:50;;;;;;;;;;;8.10;99.90;;;;;;5030015;28;19936;-56
2023/12/11 02:06:19;;;;;;;;;;;8.10;99.90;;;;;;5026305;28;20301;-56
2023/12/11 02:08:48;;;;;;;;;;;8.10;99.90;;;;;;5025622;28;19932;-56
2023/12/11 02:11:15;;;;;;;;;;;8.20;99.90;;;;;;5027379;28;19929;-56
2023/12/11 02:13:43;;;;;;;;;;;8.10;99.90;;;;;;5026800;28;20329;-56
2023/12/11 02:16:15;;;;;;;;;;;8.10;99.90;;;;;;5027171;28;19932;-56
2023/12/11 02:18:43;;;;;;;;;;;8.10;99.90;;;;;;5026626;28;19929;-57
2023/12/11 02:21:12;;;;;;;;;;;8.10;99.90;;;;;;5022900;28;20305;-57
2023/12/11 02:23:58;;;;;;;;;;;8.10;99.90;;;;;;5019915;28;20289;-57
2023/12/11 02:26:26;;;;;;;;;;;8.10;99.90;;;;;;5024918;28;20027;-57
2023/12/11 02:28:54;;;;;;;;;;;8.10;99.90;;;;;;5032833;28;20328;-58
2023/12/11 02:31:22;;;;;;;;;;;8.10;99.90;;;;;;5024297;28;19925;-56
2023/12/11 02:33:49;;;;;;;;;;;8.10;99.90;;;;;;5027580;28;19925;-56
2023/12/11 02:36:17;;;;;;;;;;;8.10;99.90;;;;;;5029297;28;19925;-56
2023/12/11 02:38:45;;;;;;;;;;;8.10;99.90;;;;;;5038763;28;19925;-56
2023/12/11 02:41:13;;;;;;;;;;;8.10;99.90;;;;;;5034649;28;19936;-56
2023/12/11 02:43:41;;;;;;;;;;;8.10;99.90;;;;;;5030069;28;19929;-56
2023/12/11 02:46:09;;;;;;;;;;;8.10;99.90;;;;;;5028494;28;19936;-56
2023/12/11 02:48:36;;;;;;;;;;;8.10;99.90;;;;;;5030599;28;19929;-58
2023/12/11 02:51:05;;;;;;;;;;;8.10;99.90;;;;;;5028127;28;19925;-57
2023/12/11 02:53:32;;;;;;;;;;;8.00;99.90;;;;;;5029549;28;19933;-56
2023/12/11 02:56:00;;;;;;;;;;;8.00;99.90;;;;;;5035806;28;20393;-57
2023/12/11 02:58:28;;;;;;;;;;;8.00;99.90;;;;;;5026718;28;19928;-57
2023/12/11 03:00:55;;;;;;;;;;;8.00;99.90;;;;;;5029358;28;20492;-57
2023/12/11 03:03:23;;;;;;;;;;;8.00;99.90;;;;;;5028667;28;19925;-56
2023/12/11 03:05:51;;;;;;;;;;;8.00;99.90;;;;;;5028467;28;20297;-56
2023/12/11 03:08:19;;;;;;;;;;;8.00;99.90;;;;;;5029261;28;19925;-57
2023/12/11 03:10:46;;;;;;;;;;;7.90;99.90;;;;;;5033430;28;19935;-57
2023/12/11 03:13:17;;;;;;;;;;;8.00;99.90;;;;;;5027793;28;19970;-57
2023/12/11 03:15:45;;;;;;;;;;;8.00;99.90;;;;;;5027813;28;20325;-57
2023/12/11 03:18:13;;;;;;;;;;;7.90;99.90;;;;;;5029848;28;19944;-57
2023/12/11 03:20:41;;;;;;;;;;;7.90;99.90;;;;;;5032532;28;19928;-57
2023/12/11 03:23:09;;;;;;;;;;;7.90;99.90;;;;;;5031038;28;19925;-57
2023/12/11 03:25:36;;;;;;;;;;;7.90;99.90;;;;;;5032212;28;19933;-57
2023/12/11 03:28:04;;;;;;;;;;;7.90;99.90;;;;;;5032572;28;19933;-57
2023/12/11 03:30:32;;;;;;;;;;;7.90;99.90;;;;;;5032080;28;20270;-57
2023/12/11 03:33:00;;;;;;;;;;;7.90;99.90;;;;;;5032180;28;19932;-57
2023/12/11 03:35:28;;;;;;;;;;;8.00;99.90;;;;;;5032352;28;19936;-56
2023/12/11 03:37:56;;;;;;;;;;;7.90;99.90;;;;;;5032092;28;19933;-57
2023/12/11 03:40:23;;;;;;;;;;;8.00;99.90;;;;;;5033181;28;19928;-57
2023/12/11 03:42:51;;;;;;;;;;;8.00;99.90;;;;;;5035398;28;19929;-56
2023/12/11 03:45:19;;;;;;;;;;;7.90;99.90;;;;;;5031692;28;20390;-56
2023/12/11 03:47:47;;;;;;;;;;;8.00;99.90;;;;;;5031632;28;19925;-56
2023/12/11 03:50:14;;;;;;;;;;;8.00;99.90;;;;;;5031806;28;19932;-56
2023/12/11 03:52:42;;;;;;;;;;;8.00;99.90;;;;;;5030695;28;19925;-56
2023/12/11 03:55:10;;;;;;;;;;;8.00;99.90;;;;;;5031632;28;19925;-56
2023/12/11 03:57:37;;;;;;;;;;;8.00;99.90;;;;;;5031407;28;19936;-56
2023/12/11 04:00:06;;;;;;;;;;;8.00;99.90;;;;;;5014246;28;19925;-56
2023/12/11 04:02:34;;;;;;;;;;;8.00;99.90;;;;;;5025664;28;19925;-56
2023/12/11 04:05:03;;;;;;;;;;;8.00;99.90;;;;;;5030416;28;19932;-56
2023/12/11 04:07:31;;;;;;;;;;;7.90;99.90;;;;;;5031148;28;19925;-56
2023/12/11 04:09:59;;;;;;;;;;;7.90;99.90;;;;;;5027646;28;19932;-56
2023/12/11 04:12:27;;;;;;;;;;;7.90;99.90;;;;;;5050231;28;19956;-56
2023/12/11 04:14:55;;;;;;;;;;;7.80;99.90;;;;;;5029507;28;19925;-56
2023/12/11 04:17:22;;;;;;;;;;;7.80;99.90;;;;;;5031596;28;19932;-56
2023/12/11 04:19:50;;;;;;;;;;;7.80;99.90;;;;;;5029915;28;19933;-56
2023/12/11 04:22:18;;;;;;;;;;;7.80;99.90;;;;;;5031409;28;19928;-56
2023/12/11 04:24:46;;;;;;;;;;;7.70;99.90;;;;;;5030100;28;19933;-56
2023/12/11 04:27:14;;;;;;;;;;;7.70;99.90;;;;;;5031503;28;19932;-56
2023/12/11 04:29:42;;;;;;;;;;;7.60;99.90;;;;;;5031741;28;20329;-56
2023/12/11 04:32:10;;;;;;;;;;;7.60;99.90;;;;;;5029677;28;19960;-56
2023/12/11 04:34:38;;;;;;;;;;;7.60;99.90;;;;;;5031636;28;19929;-56
2023/12/11 04:37:05;;;;;;;;;;;7.60;99.90;;;;;;5031959;28;20408;-57
2023/12/11 04:39:33;;;;;;;;;;;7.60;99.90;;;;;;5030843;28;20305;-56
2023/12/11 04:42:01;;;;;;;;;;;7.50;99.90;;;;;;5044429;28;20432;-56
2023/12/11 04:44:28;;;;;;;;;;;7.50;99.90;;;;;;5031709;28;20385;-56
2023/12/11 04:46:58;;;;;;;;;;;7.40;99.90;;;;;;5030199;28;19929;-56
2023/12/11 04:49:25;;;;;;;;;;;7.40;99.90;;;;;;5030417;28;19925;-56
2023/12/11 04:51:53;;;;;;;;;;;7.30;99.90;;;;;;5031473;28;20592;-56
2023/12/11 04:54:21;;;;;;;;;;;7.30;99.90;;;;;;5030156;28;19931;-56
2023/12/11 04:56:48;;;;;;;;;;;7.20;99.90;;;;;;5031547;28;19937;-56
2023/12/11 04:59:19;;;;;;;;;;;7.20;99.90;;;;;;5030340;28;19932;-56
2023/12/11 05:01:47;;;;;;;;;;;7.90;99.90;;;;;;5033178;28;20025;-57
2023/12/11 05:04:15;;;;;;;;;;;7.20;99.90;;;;;;5035512;28;20000;-56
2023/12/11 05:06:44;;;;;;;;;;;7.10;99.90;;;;;;5034448;28;19932;-56
2023/12/11 05:09:11;;;;;;;;;;;7.00;99.90;;;;;;5034907;28;19932;-56
2023/12/11 05:11:39;;;;;;;;;;;7.00;99.90;;;;;;5046944;28;19929;-56
2023/12/11 05:14:07;;;;;;;;;;;6.90;99.90;;;;;;5055328;28;19932;-56
2023/12/11 05:16:35;;;;;;;;;;;6.90;99.90;;;;;;5055023;28;19925;-57
2023/12/11 05:19:04;;;;;;;;;;;6.90;99.90;;;;;;5042397;28;20408;-56
2023/12/11 05:21:32;;;;;;;;;;;6.90;99.90;;;;;;5035059;28;19932;-56
2023/12/11 05:24:00;;;;;;;;;;;6.80;99.90;;;;;;5033614;28;19936;-56
2023/12/11 05:26:27;;;;;;;;;;;6.70;99.90;;;;;;5035057;28;19925;-56
2023/12/11 05:29:00;;;;;;;;;;;6.70;99.90;;;;;;5033877;28;20374;-59
2023/12/11 05:31:28;;;;;;;;;;;6.70;99.90;;;;;;5034476;28;19944;-59
2023/12/11 05:33:57;;;;;;;;;;;6.70;99.90;;;;;;5034250;28;19933;-59
2023/12/11 05:36:25;;;;;;;;;;;6.60;99.90;;;;;;5034787;28;19933;-59
2023/12/11 05:38:53;;;;;;;;;;;6.60;99.90;;;;;;5034775;28;20249;-59
2023/12/11 05:41:21;;;;;;;;;;;6.50;99.90;;;;;;5043753;28;19925;-59
2023/12/11 05:43:49;;;;;;;;;;;6.50;99.90;;;;;;5040659;28;20301;-59
2023/12/11 05:46:16;;;;;;;;;;;6.50;99.90;;;;;;5033304;28;19925;-59
2023/12/11 05:48:44;;;;;;;;;;;6.40;99.90;;;;;;5018634;28;19925;-59
2023/12/11 05:51:12;;;;;;;;;;;6.40;99.90;;;;;;5011763;28;19925;-59
2023/12/11 05:53:40;;;;;;;;;;;6.40;99.90;;;;;;5012007;28;19929;-58
2023/12/11 05:56:08;;;;;;;;;;;6.30;99.90;;;;;;5027065;28;19925;-59
2023/12/11 05:58:35;;;;;;;;;;;6.50;99.90;;;;;;5030295;28;19925;-59
2023/12/11 06:01:04;;;;;;;;;;;6.50;99.90;;;;;;5030704;28;19925;-59
2023/12/11 06:03:32;;;;;;;;;;;6.50;99.90;;;;;;5017990;28;19930;-59
2023/12/11 06:06:00;;;;;;;;;;;6.50;99.90;;;;;;5027989;28;20408;-59
2023/12/11 06:08:27;;;;;;;;;;;6.50;99.90;;;;;;5026181;28;20400;-59
2023/12/11 06:10:58;;;;;;;;;;;6.40;99.90;;;;;;5027451;28;19933;-59
2023/12/11 06:13:26;;;;;;;;;;;6.40;99.90;;;;;;5026788;28;20428;-59
2023/12/11 06:15:53;;;;;;;;;;;6.40;99.90;;;;;;5042742;28;19925;-59
2023/12/11 06:18:21;;;;;;;;;;;6.40;99.90;;;;;;5025678;28;19929;-59
2023/12/11 06:20:49;;;;;;;;;;;6.40;99.90;;;;;;5026280;28;20421;-59
2023/12/11 06:23:17;;;;;;;;;;;6.40;99.90;;;;;;5025303;28;19925;-59
2023/12/11 06:25:44;;;;;;;;;;;6.40;99.90;;;;;;5013162;28;19953;-59
2023/12/11 06:28:12;;;;;;;;;;;6.50;99.90;;;;;;5016351;28;19925;-58
2023/12/11 06:30:40;;;;;;;;;;;6.50;99.90;;;;;;5024525;28;19936;-59
2023/12/11 06:33:08;;;;;;;;;;;6.60;99.90;;;;;;5020484;28;19926;-59
2023/12/11 06:35:35;;;;;;;;;;;6.60;99.90;;;;;;5015798;28;19936;-59
2023/12/11 06:38:03;;;;;;;;;;;6.70;99.90;;;;;;5037932;28;20332;-59
2023/12/11 06:40:31;;;;;;;;;;;6.70;99.90;;;;;;5041509;28;19932;-56
2023/12/11 06:42:59;;;;;;;;;;;6.80;99.90;;;;;;5026220;28;19925;-56
2023/12/11 06:45:26;;;;;;;;;;;6.80;99.90;;;;;;5050104;28;20381;-56
2023/12/11 06:47:57;;;;;;;;;;;6.80;99.90;;;;;;5036466;28;19925;-59
2023/12/11 06:50:25;;;;;;;;;;;6.90;99.90;;;;;;5028082;28;19925;-59
2023/12/11 06:52:53;;;;;;;;;;;6.90;99.90;;;;;;5026058;28;20308;-59
2023/12/11 06:55:21;;;;;;;;;;;7.00;99.90;;;;;;5026954;28;20293;-59
2023/12/11 06:57:48;;;;;;;;;;;7.00;99.90;;;;;;5033622;28;19925;-56
2023/12/11 07:00:17;;;;;;;;;;;7.10;99.90;;;;;;5028962;28;19932;-56
2023/12/11 07:02:45;;;;;;;;;;;7.10;99.90;;;;;;5026369;28;19933;-56
2023/12/11 07:05:13;;;;;;;;;;;7.10;99.90;;;;;;5026070;28;20008;-56
2023/12/11 07:07:41;;;;;;;;;;;7.10;99.90;;;;;;5029541;28;19936;-56
2023/12/11 07:10:09;;;;;;;;;;;7.20;99.90;;;;;;5029957;28;19925;-57
2023/12/11 07:12:40;;;;;;;;;;;7.20;99.90;;;;;;5047892;28;19932;-56
2023/12/11 07:15:08;;;;;;;;;;;7.20;99.90;;;;;;5031846;28;19925;-56
2023/12/11 07:17:36;;;;;;;;;;;7.20;99.90;;;;;;5028597;28;19925;-56
2023/12/11 07:20:05;;;;;;;;;;;7.20;99.90;;;;;;5015791;28;20797;-56
2023/12/11 07:22:34;;;;;;;;;;;7.30;99.90;;;;;;5030268;28;20120;-57
2023/12/11 07:25:04;;;;;;;;;;;7.30;99.90;;;;;;5034829;28;20278;-59
2023/12/11 07:27:33;;;;;;;;;;;7.30;99.90;;;;;;5029440;28;20305;-56
2023/12/11 07:30:01;;;;;;;;;;;7.30;99.90;;;;;;5028832;28;20413;-56
2023/12/11 07:32:29;;;;;;;;;;;7.40;99.90;;;;;;5031681;28;19937;-56
2023/12/11 07:34:57;;;;;;;;;;;7.40;99.90;;;;;;5012798;28;19930;-57
2023/12/11 07:37:24;;;;;;;;;;;7.40;99.90;;;;;;5024470;28;19935;-57
2023/12/11 07:39:52;;;;;;;;;;;7.40;99.90;;;;;;5033851;28;19932;-57
2023/12/11 07:42:20;;;;;;;;;;;7.40;99.90;;;;;;5043422;28;19932;-57
2023/12/11 07:44:48;;;;;;;;;;;7.50;99.90;;;;;;5026098;28;19932;-57
2023/12/11 07:47:15;;;;;;;;;;;7.50;99.90;;;;;;5028864;28;19925;-57
2023/12/11 07:49:43;;;;;;;;;;;7.50;99.90;;;;;;5026280;28;19924;-57
2023/12/11 07:52:10;;;;;;;;;;;7.50;99.90;;;;;;5025923;28;19943;-57
2023/12/11 07:54:39;;;;;;;;;;;7.50;99.90;;;;;;5034676;28;20316;-57
2023/12/11 07:57:06;;;;;;;;;;;7.60;99.90;;;;;;5032537;28;20451;-57
2023/12/11 07:59:34;;;;;;;;;;;7.60;99.90;;;;;;5027965;28;20307;-57
2023/12/11 08:02:01;;;;;;;;;;;7.60;99.90;;;;;;5040351;28;20289;-57
2023/12/11 08:04:30;;;;;;;;;;;7.60;99.90;;;;;;5029861;28;19929;-57
2023/12/11 08:06:57;;;;;;;;;;;7.70;99.90;;;;;;5039509;28;19955;-57
2023/12/11 08:09:26;;;;;;;;;;;7.70;99.90;;;;;;5031388;28;19925;-57
2023/12/11 08:11:54;;;;;;;;;;;7.70;99.90;;;;;;5028702;28;19932;-57
2023/12/11 08:14:21;;;;;;;;;;;7.70;99.90;;;;;;5042251;28;19931;-57
2023/12/11 08:16:50;;;;;;;;;;;7.80;99.90;;;;;;5038832;28;19929;-57
2023/12/11 08:19:18;;;;;;;;;;;7.80;99.90;;;;;;5020966;28;19926;-57
2023/12/11 08:21:45;;;;;;;;;;;7.80;99.90;;;;;;5018995;28;19932;-57
2023/12/11 08:24:13;;;;;;;;;;;7.80;99.90;;;;;;5018326;28;20428;-57
2023/12/11 08:26:41;;;;;;;;;;;7.80;99.90;;;;;;5008566;28;19926;-57
2023/12/11 08:29:09;;;;;;;;;;;7.90;99.90;;;;;;5047857;28;19926;-57
2023/12/11 08:31:36;;;;;;;;;;;7.90;99.90;;;;;;5023166;28;19941;-57
2023/12/11 08:34:04;;;;;;;;;;;7.90;99.90;;;;;;5020331;28;19933;-57
2023/12/11 08:36:32;;;;;;;;;;;8.00;99.90;;;;;;5020803;28;19929;-57
2023/12/11 08:39:00;;;;;;;;;;;8.10;99.90;;;;;;5028730;28;19951;-57
2023/12/11 08:41:28;;;;;;;;;;;7.90;99.90;;;;;;5038490;28;19925;-57
2023/12/11 08:43:56;;;;;;;;;;;7.90;99.90;;;;;;5031588;28;19948;-57
2023/12/11 08:46:24;;;;;;;;;;;7.90;99.90;;;;;;5039209;28;19930;-57
2023/12/11 08:48:52;;;;;;;;;;;8.00;99.90;;;;;;5020957;28;19955;-57
2023/12/11 08:51:20;;;;;;;;;;;8.00;99.90;;;;;;5017315;28;19932;-59
2023/12/11 08:53:47;;;;;;;;;;;8.00;99.90;;;;;;5027243;28;19936;-57
2023/12/11 08:56:18;;;;;;;;;;;8.00;99.90;;;;;;5027351;28;19929;-58
2023/12/11 08:58:46;;;;;;;;;;;8.00;99.90;;;;;;5044617;28;19925;-57
2023/12/11 09:01:14;;;;;;;;;;;8.20;99.90;;;;;;5026312;28;19932;-57
2023/12/11 09:03:44;;;;;;;;;;;8.00;99.90;;;;;;5033992;28;20268;-57
2023/12/11 09:06:13;;;;;;;;;;;8.00;99.90;;;;;;5006656;28;20333;-57
2023/12/11 09:08:41;;;;;;;;;;;8.00;99.90;;;;;;5025701;28;20325;-57
2023/12/11 09:11:08;;;;;;;;;;;8.00;99.90;;;;;;5028092;28;19925;-57
2023/12/11 09:13:37;;;;;;;;;;;8.00;99.90;;;;;;5027522;28;19931;-57
2023/12/11 09:16:05;;;;;;;;;;;8.00;99.90;;;;;;5010559;28;19948;-57
2023/12/11 09:18:33;;;;;;;;;;;8.10;99.90;;;;;;5018998;28;19933;-56
2023/12/11 09:21:00;;;;;;;;;;;8.10;99.90;;;;;;5010615;28;19933;-57
2023/12/11 09:23:29;;;;;;;;;;;8.10;99.90;;;;;;5015669;28;20381;-57
2023/12/11 09:25:56;;;;;;;;;;;8.10;99.90;;;;;;5024145;28;19925;-56
2023/12/11 09:28:24;;;;;;;;;;;8.10;99.90;;;;;;5027790;28;20468;-57
2023/12/11 09:30:57;;;;;;;;;;;8.10;99.90;;;;;;5026474;28;19925;-57
2023/12/11 09:33:25;;;;;;;;;;;8.10;99.90;;;;;;5030131;28;19932;-57
2023/12/11 09:35:53;;;;;;;;;;;8.00;99.90;;;;;;5014410;28;19929;-57
2023/12/11 09:38:21;;;;;;;;;;;7.90;99.90;;;;;;5027736;28;19929;-57
2023/12/11 09:40:49;;;;;;;;;;;7.80;99.90;;;;;;5028030;28;19925;-56
2023/12/11 09:43:17;;;;;;;;;;;7.80;99.90;;;;;;5026699;28;19925;-57
2023/12/11 09:45:47;;;;;;;;;;;7.90;99.90;;;;;;5028190;28;19926;-57
2023/12/11 09:48:15;;;;;;;;;;;7.90;99.90;;;;;;5028606;28;19928;-57
2023/12/11 09:50:43;;;;;;;;;;;7.90;99.90;;;;;;5011744;28;20273;-56
2023/12/11 09:53:13;;;;;;;;;;;7.90;99.90;;;;;;5028796;28;19929;-56
2023/12/11 09:55:43;;;;;;;;;;;7.90;99.90;;;;;;5031391;28;19932;-56
2023/12/11 09:58:11;;;;;;;;;;;7.90;99.90;;;;;;5040769;28;19940;-56
2023/12/11 10:00:40;;;;;;;;;;;7.90;99.90;;;;;;5038814;28;19936;-56
2023/12/11 10:03:08;;;;;;;;;;;7.80;99.90;;;;;;5049030;28;19925;-57
2023/12/11 10:05:36;;;;;;;;;;;7.80;99.90;;;;;;5027806;28;19925;-56
2023/12/11 10:08:05;;;;;;;;;;;7.80;99.90;;;;;;5029290;28;19929;-56
2023/12/11 10:10:38;;;;;;;;;;;7.90;99.90;;;;;;5031083;28;20281;-56
2023/12/11 10:13:06;;;;;;;;;;;7.90;99.90;;;;;;5030724;28;20289;-56
2023/12/11 10:15:35;;;;;;;;;;;8.00;99.90;;;;;;5029942;28;19932;-56
2023/12/11 10:18:11;;;;;;;;;;;8.00;99.90;;;;;;5031040;28;19948;-56
2023/12/11 10:20:41;;;;;;;;;;;8.00;99.90;;;;;;5018257;28;19924;-56
2023/12/11 10:23:20;;;;;;;;;;;8.10;99.90;;;;;;5045258;28;19925;-56
2023/12/11 10:25:49;;;;;;;;;;;8.20;99.90;;;;;;5030167;28;19935;-56
2023/12/11 10:28:19;;;;;;;;;;;8.30;99.90;;;;;;5031429;28;20313;-56
2023/12/11 10:30:52;;;;;;;;;;;8.30;99.90;;;;;;5031434;28;20276;-56
2023/12/11 10:33:20;;;;;;;;;;;8.40;99.90;;;;;;5048550;28;19944;-57
2023/12/11 10:35:50;;;;;;;;;;;8.40;99.90;;;;;;5035747;28;19929;-57
2023/12/11 10:38:24;;;;;;;;;;;8.50;99.90;;;;;;5041458;28;20416;-56
2023/12/11 10:54:19;;;;;;;1.70;0.82;;;8.50;99.90;;;;;;5125283;27;20461;-66
2023/12/11 10:56:48;;;;;;;1.30;0.88;;;9.10;99.90;;;;;;5103336;28;20047;-68
2023/12/11 10:59:17;;;;;;;1.63;0.88;;;9.10;99.90;;;;;;5098528;28;20059;-63
2023/12/11 11:01:48;;;;;;;2.72;0.80;;;9.10;99.90;;;;;;5103117;28;20044;-65
2023/12/11 11:04:18;;;;;;;3.25;0.90;;;9.10;99.90;;;;;;5110592;28;20051;-65
2023/12/11 11:06:53;;;;;;;3.92;1.00;;;9.10;99.90;;;;;;5131670;27;20649;-61
2023/12/11 11:09:44;;;;;;;2.03;0.68;;;9.10;99.90;;;;;;5137241;27;20047;-63
2023/12/11 11:12:22;;;;;;;3.22;0.85;;;9.20;99.90;;;;;;5102782;28;20047;-62
2023/12/11 11:14:50;;;;;;;2.58;0.75;;;9.20;99.90;;;;;;5103676;28;20055;-63
2023/12/11 11:17:18;;;;;;;1.15;0.70;;;9.30;99.90;;;;;;5088350;28;20397;-62
2023/12/11 11:20:14;;;;;;;4.40;0.50;;;9.40;99.90;;;;;;5100873;28;20040;-63
2023/12/11 11:22:42;;;;;;;2.72;0.63;;;9.40;99.90;;;;;;5102865;28;20043;-62
2023/12/11 11:25:28;;;;;;;2.97;0.52;;;9.40;99.90;;;;;;5102704;28;20052;-67
2023/12/11 11:27:56;;;;;;;2.55;0.47;;;9.40;99.90;;;;;;5103023;28;20516;-61
2023/12/11 11:30:43;;;;;;;3.60;0.80;;;9.40;99.90;;;;;;5104856;28;20054;-62
2023/12/11 11:33:12;;;;;;;2.83;0.50;;;9.40;99.90;;;;;;5102587;28;20036;-63
2023/12/11 11:35:43;;;;;;;2.70;0.85;;;9.40;99.90;;;;;;5102437;28;20039;-68
2023/12/11 11:38:17;;;;;;;1.92;0.70;;;9.40;99.90;;;;;;5086992;28;20071;-62
2023/12/11 11:40:45;;;;;;;6.28;1.30;;;9.40;99.90;;;;;;5101705;28;20582;-61
2023/12/11 11:43:14;;;;;;;2.63;0.82;;;9.40;99.90;;;;;;5095402;28;20059;-68
2023/12/11 11:45:43;;;;;;;4.25;1.33;;;9.40;99.90;;;;;;5113758;28;20043;-63
2023/12/11 11:48:11;;;;;;;2.95;0.77;;;9.30;99.90;;;;;;5093056;28;20043;-61
2023/12/11 11:50:53;;;;;;;2.58;0.80;;;9.40;99.90;;;;;;5104100;28;20047;-61
2023/12/11 11:53:21;;;;;;;1.20;0.68;;;9.40;99.90;;;;;;5102827;28;20040;-62
2023/12/11 11:55:50;;;;;;;4.68;0.70;;;9.40;99.90;;;;;;5089521;28;20198;-61
2023/12/11 11:58:18;;;;;;;6.87;0.53;;;9.40;99.90;;;;;;5089786;28;20043;-65
2023/12/11 12:00:46;;;;;;;3.30;1.27;;;9.40;99.90;;;;;;5085973;28;20082;-61
2023/12/11 12:03:15;;;;;;;1.50;0.28;;;9.40;99.90;;;;;;5087303;28;20539;-61
2023/12/11 12:05:55;;;;;;;1.20;0.20;;;9.40;99.90;;;;;;5087639;28;20417;-66
2023/12/11 12:08:24;;;;;;;0.82;0.30;;;9.40;99.90;;;;;;5079249;28;20436;-61
2023/12/11 12:10:57;;;;;;;1.88;0.50;;;9.40;99.90;;;;;;5071762;28;20047;-62
2023/12/11 12:13:27;;;;;;;1.60;0.50;;;9.40;99.90;;;;;;5077361;28;20645;-61
2023/12/11 12:15:55;;;;;;;1.95;0.70;;;9.40;99.90;;;;;;5102769;28;20071;-63
2023/12/11 12:18:23;;;;;;;2.20;0.40;;;9.40;99.90;;;;;;5090000;28;20052;-62
2023/12/11 12:21:04;;;;;;;4.13;1.02;;;9.50;99.90;;;;;;5089483;28;20052;-62
2023/12/11 12:23:32;;;;;;;1.27;0.50;;;9.50;99.90;;;;;;5090250;28;20489;-61
2023/12/11 12:26:03;;;;;;;3.67;0.50;;;9.50;99.90;;;;;;5088597;28;20059;-61
2023/12/11 12:28:31;;;;;;;2.95;0.20;;;9.50;99.90;;;;;;5105136;27;20064;-60
2023/12/11 12:30:59;;;;;;;0.60;0.40;;;9.50;99.90;;;;;;5083811;28;20037;-61
2023/12/11 12:33:27;;;;;;;1.77;0.77;;;9.50;99.90;;;;;;5087474;28;20048;-61
2023/12/11 12:35:56;;;;;;;2.75;0.60;;;9.50;99.90;;;;;;5076340;28;20448;-61
2023/12/11 12:38:26;;;;;;;1.05;0.30;;;9.50;99.90;;;;;;5087578;28;20052;-61
2023/12/11 12:40:54;;;;;;;0.68;0.50;;;9.50;99.90;;;;;;5089935;28;20199;-61
2023/12/11 12:43:25;;;;;;;2.58;0.50;;;9.50;99.90;;;;;;5085661;28;20536;-62
2023/12/11 12:46:00;;;;;;;4.25;0.40;;;9.50;99.90;;;;;;5088211;28;20497;-61
2023/12/11 12:48:28;;;;;;;3.80;0.40;;;9.50;99.90;;;;;;5087860;28;20051;-64
2023/12/11 12:51:11;;;;;;;2.28;0.70;;;9.50;99.90;;;;;;5089750;28;20413;-62
2023/12/11 12:54:05;;;;;;;0.60;0.30;;;9.50;99.90;;;;;;5092161;28;20051;-64
2023/12/11 12:56:33;;;;;;;2.72;0.30;;;9.50;99.90;;;;;;5069246;28;20045;-62
2023/12/11 12:59:02;;;;;;;1.15;0.30;;;9.50;99.90;;;;;;5082942;28;20416;-64
2023/12/11 13:01:38;;;;;;;3.10;0.50;;;9.50;99.90;;;;;;5088622;28;20079;-65
2023/12/11 13:04:10;;;;;;;2.20;0.28;;;9.60;99.90;;;;;;5084960;28;20051;-63
2023/12/11 13:06:38;;;;;;;1.75;0.30;;;9.60;99.90;;;;;;5069308;28;20075;-61
2023/12/11 13:09:08;;;;;;;3.47;0.40;;;9.60;99.90;;;;;;5087020;28;20047;-63
2023/12/11 13:11:38;;;;;;;2.47;0.40;;;9.60;99.90;;;;;;5075198;28;20047;-63
2023/12/11 13:14:07;;;;;;;2.80;0.60;;;9.70;99.90;;;;;;5091611;28;20397;-61
2023/12/11 13:16:35;;;;;;;1.25;0.40;;;9.70;99.90;;;;;;5090671;28;20390;-62
2023/12/11 13:19:03;;;;;;;2.55;0.40;;;9.60;99.90;;;;;;5087868;28;20044;-61
2023/12/11 13:21:31;;;;;;;1.75;0.73;;;9.60;99.90;;;;;;5089104;28;20052;-61
2023/12/11 13:23:59;;;;;;;0.73;0.50;;;9.60;99.90;;;;;;5086582;28;20048;-60
2023/12/11 13:26:28;;;;;;;0.60;0.30;;;9.60;99.90;;;;;;5086597;28;20512;-67
2023/12/11 13:28:57;;;;;;;2.53;0.22;;;9.50;99.90;;;;;;5079568;28;20059;-61
2023/12/11 13:31:25;;;;;;;1.90;0.40;;;9.60;99.90;;;;;;5083368;28;20055;-66
2023/12/11 13:33:56;;;;;;;0.38;0.35;;;9.50;99.90;;;;;;5085748;28;20056;-62
2023/12/11 13:36:24;;;;;;;1.92;0.30;;;9.50;99.90;;;;;;5086065;28;20405;-65
2023/12/11 13:38:51;;;;;;;4.00;0.40;;;9.50;99.90;;;;;;5085717;28;20432;-66
2023/12/11 13:41:19;;;;;;;2.35;0.88;;;9.50;99.90;;;;;;5083249;28;20036;-63
2023/12/11 13:43:47;;;;;;;0.90;0.50;;;9.50;99.90;;;;;;5093867;28;20055;-66
2023/12/11 13:46:15;;;;;;;3.78;0.57;;;9.40;99.90;;;;;;5082294;28;20048;-67
2023/12/11 13:48:45;;;;;;;1.10;0.60;;;9.40;99.90;;;;;;5086254;28;20059;-62
2023/12/11 13:51:13;;;;;;;;;;;9.50;99.90;;;;;;5085943;28;20192;-68
2023/12/11 13:53:41;;;;;;;4.20;0.40;;;9.50;99.90;;;;;;5088031;28;19927;-66
2023/12/11 13:56:09;;;;;;;2.58;0.47;;;9.50;99.90;;;;;;5088072;28;20397;-66
2023/12/11 13:58:36;;;;;;;0.60;0.30;;;9.50;99.90;;;;;;5087181;28;20044;-68
2023/12/11 14:01:04;;;;;;;2.33;0.40;;;9.50;99.90;;;;;;5083329;28;20040;-65
2023/12/11 14:03:32;;;;;;;3.70;0.45;;;9.50;99.90;;;;;;5085344;28;20069;-63
2023/12/11 14:06:00;;;;;;;2.13;0.40;;;9.50;99.90;;;;;;5087310;28;20524;-66
2023/12/11 14:08:29;;;;;;;2.40;0.50;;;9.50;99.90;;;;;;5082934;28;20505;-69
2023/12/11 14:10:57;;;;;;;1.65;0.35;;;9.60;99.90;;;;;;5075009;28;20040;-66
2023/12/11 14:13:25;;;;;;;3.92;0.52;;;9.60;99.90;;;;;;5085258;28;20047;-64
2023/12/11 14:15:53;;;;;;;3.20;0.65;;;9.60;99.90;;;;;;5095076;28;20039;-62
2023/12/11 14:18:21;;;;;;;0.57;0.50;;;9.60;99.90;;;;;;5083484;28;20413;-65
2023/12/11 14:20:50;;;;;;;1.85;0.40;;;9.60;99.90;;;;;;5085797;28;20040;-67
2023/12/11 14:23:18;;;;;;;2.55;0.40;;;9.60;99.90;;;;;;5087399;28;20559;-66
2023/12/11 14:25:46;;;;;;;3.90;0.55;;;9.60;99.90;;;;;;5087269;28;20044;-64